Time;durP1;ratioP1;P1;durP2;ratioP2;P2;SDS_P1;SDS_P2;PMS_P1;PMS_P2;Temp;Humidity;BMP_temperature;BMP_pressure;BME280_temperature;BME280_humidity;BME280_pressure;Samples;Min_cycle;Max_cycle;Signal;HPM_P1;HPM_P2
2023/03/08 00:00:13;;;;;;;5.95;2.50;;;;;;;;;;5087541;28;20052;-80
2023/03/08 00:02:39;;;;;;;6.70;2.22;;;;;;;;;;5088478;28;20028;-80
2023/03/08 00:05:06;;;;;;;5.38;2.35;;;;;;;;;;5093329;28;20048;-80
2023/03/08 00:07:32;;;;;;;5.22;2.33;;;;;;;;;;5107833;28;20060;-80
2023/03/08 00:09:58;;;;;;;5.55;2.22;;;;;;;;;;5110613;28;20055;-80
2023/03/08 00:12:24;;;;;;;8.07;2.70;;;;;;;;;;5110977;28;20051;-80
2023/03/08 00:14:50;;;;;;;5.55;2.05;;;;;;;;;;5111341;28;20047;-80
2023/03/08 00:17:17;;;;;;;6.88;2.60;;;;;;;;;;5111301;28;20054;-80
2023/03/08 00:19:44;;;;;;;6.97;2.33;;;;;;;;;;5095781;28;20106;-80
2023/03/08 00:22:10;;;;;;;7.75;2.60;;;;;;;;;;5090784;28;20044;-80
2023/03/08 00:24:36;;;;;;;4.90;2.20;;;;;;;;;;5110384;28;20040;-80
2023/03/08 00:27:03;;;;;;;6.88;2.30;;;;;;;;;;5110652;28;20066;-80
2023/03/08 00:29:29;;;;;;;5.60;2.40;;;;;;;;;;5103173;28;20047;-80
2023/03/08 00:31:55;;;;;;;6.47;2.50;;;;;;;;;;5087542;28;20040;-80
2023/03/08 00:34:21;;;;;;;5.93;2.53;;;;;;;;;;5091083;28;20040;-80
2023/03/08 00:36:47;;;;;;;5.20;2.42;;;;;;;;;;5091734;28;20067;-80
2023/03/08 00:39:15;;;;;;;5.00;2.40;;;;;;;;;;5094028;28;20056;-80
2023/03/08 00:41:41;;;;;;;8.07;2.47;;;;;;;;;;5106434;28;20078;-80
2023/03/08 00:44:07;;;;;;;7.07;2.95;;;;;;;;;;5089221;28;20092;-80
2023/03/08 00:46:34;;;;;;;5.45;2.53;;;;;;;;;;5097784;28;20044;-80
2023/03/08 00:49:00;;;;;;;6.82;2.53;;;;;;;;;;5110350;28;20040;-80
2023/03/08 00:51:26;;;;;;;6.25;2.83;;;;;;;;;;5092735;28;20076;-80
2023/03/08 00:53:52;;;;;;;6.72;2.80;;;;;;;;;;5100300;28;20130;-79
2023/03/08 00:56:18;;;;;;;6.15;2.70;;;;;;;;;;5096463;28;20048;-80
2023/03/08 00:58:44;;;;;;;7.72;3.10;;;;;;;;;;5097164;28;20233;-79
2023/03/08 01:01:15;;;;;;;8.05;3.30;;;;;;;;;;5085999;28;20044;-80
2023/03/08 01:03:41;;;;;;;6.25;2.92;;;;;;;;;;5094622;28;20040;-80
2023/03/08 01:06:09;;;;;;;7.95;3.40;;;;;;;;;;5096332;28;20086;-80
2023/03/08 01:08:35;;;;;;;8.90;3.10;;;;;;;;;;5099903;28;20036;-80
2023/03/08 01:11:02;;;;;;;8.27;3.63;;;;;;;;;;5094247;28;20063;-80
2023/03/08 01:13:29;;;;;;;8.30;3.30;;;;;;;;;;5089646;28;20053;-80
2023/03/08 01:15:55;;;;;;;9.98;4.28;;;;;;;;;;5091191;28;20048;-80
2023/03/08 01:18:21;;;;;;;8.98;3.55;;;;;;;;;;5089989;28;20051;-80
2023/03/08 01:20:56;;;;;;;7.32;3.78;;;;;;;;;;5100262;28;20122;-80
2023/03/08 01:23:23;;;;;;;9.25;4.13;;;;;;;;;;5111612;28;20050;-80
2023/03/08 01:25:49;;;;;;;8.75;4.20;;;;;;;;;;5110304;28;20409;-80
2023/03/08 01:28:15;;;;;;;9.32;4.35;;;;;;;;;;5092093;28;20044;-80
2023/03/08 01:30:41;;;;;;;11.32;4.28;;;;;;;;;;5092580;28;20040;-80
2023/03/08 01:33:07;;;;;;;9.13;4.70;;;;;;;;;;5110744;28;20094;-80
2023/03/08 01:35:33;;;;;;;9.35;4.47;;;;;;;;;;5101598;28;20040;-80
2023/03/08 01:37:59;;;;;;;11.23;4.28;;;;;;;;;;5100459;28;20055;-80
2023/03/08 01:40:25;;;;;;;8.23;4.18;;;;;;;;;;5092685;28;20044;-80
2023/03/08 01:42:51;;;;;;;9.18;4.75;;;;;;;;;;5107061;28;20407;-80
2023/03/08 01:45:36;;;;;;;11.73;5.13;;;;;;;;;;5092074;28;20054;-79
2023/03/08 01:48:02;;;;;;;8.65;4.65;;;;;;;;;;5089357;28;20044;-79
2023/03/08 01:50:28;;;;;;;10.93;4.65;;;;;;;;;;5088198;28;20044;-79
2023/03/08 01:52:55;;;;;;;8.98;4.82;;;;;;;;;;5089347;28;20128;-79
2023/03/08 01:55:21;;;;;;;10.98;5.22;;;;;;;;;;5094598;28;20039;-80
2023/03/08 01:57:49;;;;;;;8.07;4.45;;;;;;;;;;5089676;28;20510;-79
2023/03/08 02:00:17;;;;;;;9.20;5.15;;;;;;;;;;5101451;28;20048;-79
2023/03/08 02:02:47;;;;;;;9.98;4.88;;;;;;;;;;5093557;28;20747;-79
2023/03/08 02:05:14;;;;;;;9.97;5.63;;;;;;;;;;5095696;28;20486;-80
2023/03/08 02:07:40;;;;;;;10.88;4.97;;;;;;;;;;5099901;28;20064;-80
2023/03/08 02:10:06;;;;;;;9.57;5.78;;;;;;;;;;5108030;28;20048;-80
2023/03/08 02:12:33;;;;;;;14.52;6.15;;;;;;;;;;5109102;28;20047;-80
2023/03/08 02:15:00;;;;;;;11.93;5.82;;;;;;;;;;5108167;28;20044;-79
2023/03/08 02:17:26;;;;;;;10.77;6.20;;;;;;;;;;5106379;28;20049;-79
2023/03/08 02:19:55;;;;;;;12.07;6.85;;;;;;;;;;5090317;28;20055;-79
2023/03/08 02:22:21;;;;;;;10.48;7.28;;;;;;;;;;5107753;28;20048;-79
2023/03/08 02:24:47;;;;;;;12.27;6.97;;;;;;;;;;5108413;28;20077;-79
2023/03/08 02:27:16;;;;;;;14.13;7.30;;;;;;;;;;5107545;28;20048;-79
2023/03/08 02:29:42;;;;;;;12.93;6.55;;;;;;;;;;5106953;28;20059;-79
2023/03/08 02:32:09;;;;;;;13.60;7.15;;;;;;;;;;5105346;28;20132;-79
2023/03/08 02:34:35;;;;;;;13.57;7.30;;;;;;;;;;5100261;28;20045;-79
2023/03/08 02:37:01;;;;;;;12.85;7.20;;;;;;;;;;5086359;28;20066;-79
2023/03/08 02:39:27;;;;;;;12.05;6.93;;;;;;;;;;5096275;28;20051;-79
2023/03/08 02:41:53;;;;;;;12.55;6.90;;;;;;;;;;5090493;28;20051;-79
2023/03/08 02:44:19;;;;;;;11.43;6.70;;;;;;;;;;5093193;28;20040;-79
2023/03/08 02:46:45;;;;;;;11.35;6.70;;;;;;;;;;5088661;28;20097;-79
2023/03/08 02:49:11;;;;;;;12.98;6.72;;;;;;;;;;5086536;28;20052;-79
2023/03/08 02:51:38;;;;;;;14.45;7.32;;;;;;;;;;5080471;28;20502;-79
2023/03/08 02:54:04;;;;;;;11.52;6.70;;;;;;;;;;5081362;28;20074;-79
2023/03/08 02:56:30;;;;;;;11.15;7.15;;;;;;;;;;5090515;28;20074;-79
2023/03/08 02:58:56;;;;;;;14.10;7.40;;;;;;;;;;5089725;28;20483;-79
2023/03/08 03:01:22;;;;;;;13.43;7.55;;;;;;;;;;5086835;28;20052;-79
2023/03/08 03:03:49;;;;;;;13.75;7.68;;;;;;;;;;5098295;28;20070;-78
2023/03/08 03:06:16;;;;;;;14.95;7.68;;;;;;;;;;5086187;28;20044;-79
2023/03/08 03:08:43;;;;;;;14.48;8.02;;;;;;;;;;5079395;28;20605;-79
2023/03/08 03:11:16;;;;;;;13.75;7.03;;;;;;;;;;5076971;28;20044;-79
2023/03/08 03:13:43;;;;;;;15.43;7.90;;;;;;;;;;5075965;28;20052;-79
2023/03/08 03:16:10;;;;;;;13.18;8.02;;;;;;;;;;5081584;28;20093;-79
2023/03/08 03:18:36;;;;;;;13.68;7.70;;;;;;;;;;5090128;28;20044;-79
2023/03/08 03:21:03;;;;;;;13.13;7.78;;;;;;;;;;5102583;28;20088;-79
2023/03/08 03:23:29;;;;;;;15.77;8.68;;;;;;;;;;5084606;28;20162;-79
2023/03/08 03:25:55;;;;;;;13.65;8.27;;;;;;;;;;5085343;28;20040;-79
2023/03/08 03:28:21;;;;;;;14.25;8.05;;;;;;;;;;5084264;28;20037;-79
2023/03/08 03:30:47;;;;;;;16.73;8.70;;;;;;;;;;5099313;28;20401;-78
2023/03/08 03:33:14;;;;;;;15.32;8.63;;;;;;;;;;5108321;28;20040;-79
2023/03/08 03:35:40;;;;;;;12.88;8.00;;;;;;;;;;5108120;28;20062;-79
2023/03/08 03:38:06;;;;;;;14.40;8.80;;;;;;;;;;5107344;28;20043;-79
2023/03/08 03:40:32;;;;;;;14.35;8.80;;;;;;;;;;5098747;28;20048;-79
2023/03/08 03:42:58;;;;;;;15.45;9.20;;;;;;;;;;5099188;28;20113;-79
2023/03/08 03:45:24;;;;;;;13.45;9.25;;;;;;;;;;5094240;28;20048;-79
2023/03/08 03:47:50;;;;;;;14.13;9.45;;;;;;;;;;5091969;28;20100;-79
2023/03/08 03:50:16;;;;;;;15.63;10.13;;;;;;;;;;5089128;28;20041;-79
2023/03/08 03:52:42;;;;;;;14.98;9.50;;;;;;;;;;5084861;28;20036;-79
2023/03/08 03:55:08;;;;;;;14.13;9.63;;;;;;;;;;5102726;28;20041;-79
2023/03/08 03:57:34;;;;;;;17.45;10.30;;;;;;;;;;5105122;28;20040;-79
2023/03/08 04:00:01;;;;;;;15.48;9.52;;;;;;;;;;5085378;28;20048;-79
2023/03/08 04:02:28;;;;;;;18.45;9.65;;;;;;;;;;5087835;28;20115;-79
2023/03/08 04:04:54;;;;;;;20.77;10.30;;;;;;;;;;5086150;28;20043;-79
2023/03/08 04:07:20;;;;;;;18.48;9.77;;;;;;;;;;5085971;28;20052;-79
2023/03/08 04:09:47;;;;;;;14.35;9.85;;;;;;;;;;5103084;28;20405;-79
2023/03/08 04:12:13;;;;;;;16.90;10.35;;;;;;;;;;5096749;28;20054;-79
2023/03/08 04:14:39;;;;;;;18.55;10.43;;;;;;;;;;5101382;28;20546;-79
2023/03/08 04:17:06;;;;;;;17.77;10.63;;;;;;;;;;5096774;28;20052;-79
2023/03/08 04:19:33;;;;;;;15.82;10.55;;;;;;;;;;5100475;28;20089;-79
2023/03/08 04:21:59;;;;;;;14.23;9.48;;;;;;;;;;5070739;28;20056;-79
2023/03/08 04:24:25;;;;;;;16.00;10.80;;;;;;;;;;5091428;28;20048;-79
2023/03/08 04:26:51;;;;;;;17.35;10.32;;;;;;;;;;5109707;28;20054;-79
2023/03/08 04:29:17;;;;;;;19.42;11.00;;;;;;;;;;5103236;28;20037;-79
2023/03/08 04:31:43;;;;;;;15.07;10.00;;;;;;;;;;5090199;28;20122;-78
2023/03/08 04:34:09;;;;;;;20.58;12.13;;;;;;;;;;5104128;28;20044;-78
2023/03/08 04:36:36;;;;;;;28.50;15.48;;;;;;;;;;5103848;28;20044;-78
2023/03/08 04:39:03;;;;;;;21.77;13.75;;;;;;;;;;5098424;28;20039;-79
2023/03/08 04:41:29;;;;;;;18.33;11.30;;;;;;;;;;5089372;28;20540;-79
2023/03/08 04:43:56;;;;;;;17.02;10.88;;;;;;;;;;5096558;28;20052;-79
2023/03/08 04:46:23;;;;;;;22.58;10.77;;;;;;;;;;5089850;28;20083;-79
2023/03/08 04:48:54;;;;;;;15.25;10.88;;;;;;;;;;5088115;28;20059;-79
2023/03/08 04:51:21;;;;;;;17.35;10.40;;;;;;;;;;5097246;28;20059;-79
2023/03/08 04:53:47;;;;;;;16.48;11.18;;;;;;;;;;5086874;28;20062;-79
2023/03/08 04:56:14;;;;;;;19.95;11.15;;;;;;;;;;5082830;28;20037;-79
2023/03/08 04:58:40;;;;;;;19.17;12.05;;;;;;;;;;5094705;28;20032;-79
2023/03/08 05:01:13;;;;;;;16.35;11.88;;;;;;;;;;5098493;28;20604;-80
2023/03/08 05:03:39;;;;;;;22.95;12.57;;;;;;;;;;5097416;28;20040;-79
2023/03/08 05:06:06;;;;;;;17.95;11.52;;;;;;;;;;5089485;28;20418;-79
2023/03/08 05:08:32;;;;;;;18.25;11.80;;;;;;;;;;5084560;28;20102;-79
2023/03/08 05:10:59;;;;;;;20.02;13.50;;;;;;;;;;5080357;28;20040;-79
2023/03/08 05:13:26;;;;;;;18.90;12.27;;;;;;;;;;5081876;28;20037;-79
2023/03/08 05:15:52;;;;;;;19.15;12.60;;;;;;;;;;5089586;28;20055;-79
2023/03/08 05:18:18;;;;;;;16.13;11.40;;;;;;;;;;5094634;28;20041;-79
2023/03/08 05:20:44;;;;;;;16.63;11.45;;;;;;;;;;5089782;28;20040;-79
2023/03/08 05:23:11;;;;;;;22.02;12.73;;;;;;;;;;5103539;28;20048;-79
2023/03/08 05:25:43;;;;;;;24.00;11.90;;;;;;;;;;5089921;28;20051;-79
2023/03/08 05:28:14;;;;;;;17.58;12.20;;;;;;;;;;5085077;28;20048;-79
2023/03/08 05:30:40;;;;;;;17.73;12.02;;;;;;;;;;5093623;28;20117;-79
2023/03/08 05:33:06;;;;;;;16.50;11.55;;;;;;;;;;5088523;28;20044;-79
2023/03/08 05:35:32;;;;;;;18.50;13.52;;;;;;;;;;5104398;28;20051;-79
2023/03/08 05:37:58;;;;;;;19.02;12.60;;;;;;;;;;5105318;28;20039;-79
2023/03/08 05:40:24;;;;;;;16.35;11.23;;;;;;;;;;5088672;28;20047;-79
2023/03/08 05:42:50;;;;;;;15.75;10.98;;;;;;;;;;5092634;28;20044;-79
2023/03/08 05:45:16;;;;;;;18.27;11.77;;;;;;;;;;5092699;28;20067;-79
2023/03/08 05:47:43;;;;;;;18.65;11.98;;;;;;;;;;5091663;28;20048;-79
2023/03/08 05:50:10;;;;;;;17.67;11.00;;;;;;;;;;5084858;28;20043;-79
2023/03/08 05:52:36;;;;;;;18.48;11.55;;;;;;;;;;5083445;28;20510;-80
2023/03/08 05:55:02;;;;;;;16.33;11.60;;;;;;;;;;5098545;28;20135;-78
2023/03/08 05:57:28;;;;;;;18.08;11.88;;;;;;;;;;5093979;28;20040;-79
2023/03/08 05:59:54;;;;;;;16.92;12.18;;;;;;;;;;5080352;28;20056;-78
2023/03/08 06:02:21;;;;;;;15.88;11.23;;;;;;;;;;5093491;28;20067;-79
2023/03/08 06:04:47;;;;;;;15.45;11.15;;;;;;;;;;5085778;28;20041;-79
2023/03/08 06:07:13;;;;;;;16.55;10.95;;;;;;;;;;5087171;28;20060;-78
2023/03/08 06:09:39;;;;;;;19.17;11.77;;;;;;;;;;5102259;28;20555;-79
2023/03/08 06:12:05;;;;;;;15.25;10.98;;;;;;;;;;5069322;28;20071;-79
2023/03/08 06:14:31;;;;;;;18.85;11.57;;;;;;;;;;5094657;28;20040;-79
2023/03/08 06:16:57;;;;;;;16.77;11.30;;;;;;;;;;5094774;28;20078;-79
2023/03/08 06:19:23;;;;;;;16.73;11.05;;;;;;;;;;5078874;28;20119;-79
2023/03/08 06:21:49;;;;;;;15.93;11.05;;;;;;;;;;5084858;28;20081;-79
2023/03/08 06:24:15;;;;;;;17.15;11.25;;;;;;;;;;5082171;28;20051;-79
2023/03/08 06:26:41;;;;;;;17.05;10.80;;;;;;;;;;5087977;28;20475;-79
2023/03/08 06:29:07;;;;;;;16.10;11.15;;;;;;;;;;5097940;28;20055;-79
2023/03/08 06:31:33;;;;;;;16.67;11.43;;;;;;;;;;5084412;28;20131;-79
2023/03/08 06:33:59;;;;;;;18.08;11.30;;;;;;;;;;5097284;28;20044;-79
2023/03/08 06:36:25;;;;;;;16.80;11.18;;;;;;;;;;5092119;28;20060;-79
2023/03/08 06:38:52;;;;;;;16.27;10.95;;;;;;;;;;5083441;28;20069;-79
2023/03/08 06:41:19;;;;;;;16.30;10.98;;;;;;;;;;5080302;28;20037;-79
2023/03/08 06:43:45;;;;;;;16.05;11.43;;;;;;;;;;5093877;28;20074;-79
2023/03/08 06:46:13;;;;;;;16.33;10.93;;;;;;;;;;5088278;28;20080;-79
2023/03/08 06:48:40;;;;;;;15.10;10.98;;;;;;;;;;5084123;28;20052;-79
2023/03/08 06:51:06;;;;;;;15.57;10.82;;;;;;;;;;5095441;28;20139;-79
2023/03/08 06:53:35;;;;;;;15.00;10.30;;;;;;;;;;5084527;28;20130;-79
2023/03/08 06:56:02;;;;;;;17.05;10.98;;;;;;;;;;5102084;28;20048;-79
2023/03/08 06:58:28;;;;;;;17.15;10.68;;;;;;;;;;5087885;28;20048;-79
2023/03/08 07:00:54;;;;;;;18.02;11.50;;;;;;;;;;5084780;28;20059;-79
2023/03/08 07:03:21;;;;;;;16.67;11.02;;;;;;;;;;5088276;28;20036;-79
2023/03/08 07:05:47;;;;;;;16.92;10.65;;;;;;;;;;5084241;28;20068;-79
2023/03/08 07:08:14;;;;;;;17.92;11.20;;;;;;;;;;5078862;28;20408;-79
2023/03/08 07:10:40;;;;;;;15.50;10.77;;;;;;;;;;5077285;28;20052;-79
2023/03/08 07:13:06;;;;;;;14.73;10.63;;;;;;;;;;5079557;28;20056;-79
2023/03/08 07:15:32;;;;;;;16.27;9.70;;;;;;;;;;5082186;28;20040;-79
2023/03/08 07:17:58;;;;;;;14.10;9.30;;;;;;;;;;5084202;28;20117;-79
2023/03/08 07:20:25;;;;;;;14.38;8.60;;;;;;;;;;5080748;28;20040;-78
2023/03/08 07:22:52;;;;;;;16.92;9.25;;;;;;;;;;5091679;28;20044;-78
2023/03/08 07:25:18;;;;;;;12.32;8.73;;;;;;;;;;5097923;28;20444;-78
2023/03/08 07:27:45;;;;;;;14.02;9.75;;;;;;;;;;5080732;28;20036;-78
2023/03/08 07:30:12;;;;;;;13.65;9.35;;;;;;;;;;5095843;28;20051;-78
2023/03/08 07:32:39;;;;;;;15.68;9.95;;;;;;;;;;5083602;28;20040;-79
2023/03/08 07:35:06;;;;;;;13.50;8.90;;;;;;;;;;5097949;28;20067;-79
2023/03/08 07:37:32;;;;;;;18.25;9.38;;;;;;;;;;5075793;28;20045;-78
2023/03/08 07:39:58;;;;;;;13.27;9.52;;;;;;;;;;5081745;28;20055;-78
2023/03/08 07:42:26;;;;;;;13.93;9.70;;;;;;;;;;5077590;28;20063;-78
2023/03/08 07:44:52;;;;;;;16.90;9.95;;;;;;;;;;5077876;28;20063;-79
2023/03/08 07:47:18;;;;;;;14.80;9.98;;;;;;;;;;5077562;28;20425;-78
2023/03/08 07:49:44;;;;;;;15.48;10.07;;;;;;;;;;5076932;28;20552;-79
2023/03/08 07:52:10;;;;;;;13.63;10.00;;;;;;;;;;5077677;28;20049;-78
2023/03/08 07:54:36;;;;;;;15.48;9.90;;;;;;;;;;5076221;28;20052;-78
2023/03/08 07:57:02;;;;;;;15.88;10.40;;;;;;;;;;5077928;28;20044;-79
2023/03/08 07:59:29;;;;;;;14.13;9.52;;;;;;;;;;5095921;28;20052;-78
2023/03/08 08:01:55;;;;;;;15.82;10.27;;;;;;;;;;5079079;28;20048;-79
2023/03/08 08:04:22;;;;;;;17.23;11.02;;;;;;;;;;5090585;28;20048;-78
2023/03/08 08:06:48;;;;;;;17.67;11.20;;;;;;;;;;5076106;28;20059;-78
2023/03/08 08:09:16;;;;;;;17.67;11.55;;;;;;;;;;5088887;28;20076;-78
2023/03/08 08:11:42;;;;;;;17.25;11.82;;;;;;;;;;5072353;28;20040;-78
2023/03/08 08:14:08;;;;;;;19.50;12.20;;;;;;;;;;5075307;28;20048;-78
2023/03/08 08:16:34;;;;;;;20.13;12.02;;;;;;;;;;5075845;28;20048;-78
2023/03/08 08:19:02;;;;;;;16.52;12.57;;;;;;;;;;5085099;28;20044;-78
2023/03/08 08:21:28;;;;;;;18.00;12.60;;;;;;;;;;5079214;28;20128;-78
2023/03/08 08:23:56;;;;;;;19.13;13.25;;;;;;;;;;5077669;28;20040;-78
2023/03/08 08:26:23;;;;;;;22.48;14.30;;;;;;;;;;5082089;28;20467;-78
2023/03/08 08:28:51;;;;;;;22.55;14.70;;;;;;;;;;5080134;28;20098;-78
2023/03/08 08:31:18;;;;;;;28.00;17.92;;;;;;;;;;5077154;28;20150;-78
2023/03/08 08:33:44;;;;;;;31.23;19.88;;;;;;;;;;5076380;28;20041;-79
2023/03/08 08:36:14;;;;;;;28.98;19.27;;;;;;;;;;5081828;28;20049;-79
2023/03/08 08:38:42;;;;;;;39.90;19.05;;;;;;;;;;5091911;28;20044;-79
2023/03/08 08:41:08;;;;;;;31.95;20.73;;;;;;;;;;5098500;28;20054;-79
2023/03/08 08:43:38;;;;;;;35.00;21.35;;;;;;;;;;5085942;28;20071;-79
2023/03/08 08:46:04;;;;;;;40.50;21.50;;;;;;;;;;5078559;28;20483;-79
2023/03/08 08:48:35;;;;;;;40.45;22.23;;;;;;;;;;5084145;28;20048;-79
2023/03/08 08:51:01;;;;;;;38.55;22.63;;;;;;;;;;5078682;28;20099;-79
2023/03/08 08:53:27;;;;;;;36.05;21.98;;;;;;;;;;5089812;28;20040;-79
2023/03/08 08:55:54;;;;;;;38.65;20.88;;;;;;;;;;5079239;28;20052;-79
2023/03/08 08:58:20;;;;;;;79.18;24.23;;;;;;;;;;5094280;28;20059;-79
2023/03/08 09:00:46;;;;;;;37.70;21.38;;;;;;;;;;5096428;28;20047;-80
2023/03/08 09:03:12;;;;;;;45.35;22.55;;;;;;;;;;5094548;28;20045;-79
2023/03/08 09:05:39;;;;;;;31.48;19.60;;;;;;;;;;5077422;28;20486;-78
2023/03/08 09:08:05;;;;;;;29.15;18.92;;;;;;;;;;5078940;28;20059;-77
2023/03/08 09:10:34;;;;;;;30.30;18.73;;;;;;;;;;5077017;28;20483;-78
2023/03/08 09:13:00;;;;;;;56.85;18.95;;;;;;;;;;5080775;28;20084;-81
2023/03/08 09:15:26;;;;;;;40.53;20.25;;;;;;;;;;5094888;28;20048;-80
2023/03/08 09:17:52;;;;;;;39.97;19.48;;;;;;;;;;5096771;28;20040;-80
2023/03/08 09:20:21;;;;;;;34.40;18.58;;;;;;;;;;5084470;28;20053;-80
2023/03/08 09:22:47;;;;;;;31.45;18.25;;;;;;;;;;5084737;28;20472;-80
2023/03/08 09:25:14;;;;;;;27.95;18.63;;;;;;;;;;5092005;28;20051;-80
2023/03/08 09:27:41;;;;;;;32.90;18.85;;;;;;;;;;5080824;28;20051;-79
2023/03/08 09:30:11;;;;;;;31.55;18.17;;;;;;;;;;5084121;28;20076;-79
2023/03/08 09:32:37;;;;;;;27.95;17.30;;;;;;;;;;5079857;28;20052;-80
2023/03/08 09:35:04;;;;;;;31.52;18.20;;;;;;;;;;5082742;28;20047;-80
2023/03/08 09:37:30;;;;;;;40.90;18.98;;;;;;;;;;5078646;28;20530;-80
2023/03/08 09:39:57;;;;;;;29.17;17.77;;;;;;;;;;5081159;28;20048;-80
2023/03/08 09:42:26;;;;;;;33.95;17.92;;;;;;;;;;5081599;28;20049;-80
2023/03/08 09:44:59;;;;;;;31.52;18.40;;;;;;;;;;5086609;28;20036;-80
2023/03/08 09:47:34;;;;;;;27.92;18.92;;;;;;;;;;5103427;28;20057;-80
2023/03/08 09:50:09;;;;;;;27.15;17.92;;;;;;;;;;5092380;28;20047;-81
2023/03/08 09:52:37;;;;;;;28.15;18.20;;;;;;;;;;5101548;28;20058;-80
2023/03/08 09:55:05;;;;;;;50.50;20.35;;;;;;;;;;5081993;28;20116;-81
2023/03/08 09:57:36;;;;;;;41.92;21.08;;;;;;;;;;5089703;28;20050;-80
2023/03/08 10:00:10;;;;;;;30.50;19.23;;;;;;;;;;5090875;28;20049;-81
2023/03/08 10:02:36;;;;;;;34.15;17.98;;;;;;;;;;5081659;28;20064;-81
2023/03/08 10:05:05;;;;;;;32.40;19.83;;;;;;;;;;5092486;28;20102;-81
2023/03/08 10:07:47;;;;;;;37.58;19.10;;;;;;;;;;5092433;28;20041;-81
2023/03/08 10:10:24;;;;;;;28.02;18.38;;;;;;;;;;5089067;28;20465;-81
2023/03/08 10:13:05;;;;;;;32.53;19.13;;;;;;;;;;5075039;28;20036;-80
2023/03/08 10:15:39;;;;;;;34.80;19.77;;;;;;;;;;5079187;28;20068;-81
2023/03/08 10:18:23;;;;;;;27.55;17.23;;;;;;;;;;5078940;28;20505;-81
2023/03/08 10:20:50;;;;;;;42.88;16.48;;;;;;;;;;5076560;28;20056;-81
2023/03/08 10:23:17;;;;;;;25.38;17.00;;;;;;;;;;5081174;28;20044;-81
2023/03/08 10:25:44;;;;;;;28.20;16.88;;;;;;;;;;5087999;28;20508;-81
2023/03/08 10:28:17;;;;;;;28.17;16.52;;;;;;;;;;5085335;28;20044;-81
2023/03/08 10:30:48;;;;;;;46.25;18.20;;;;;;;;;;5081492;28;20037;-81
2023/03/08 10:33:16;;;;;;;39.42;17.50;;;;;;;;;;5086265;28;21842;-81
2023/03/08 10:35:58;;;;;;;28.50;18.05;;;;;;;;;;5095750;28;20043;-82
2023/03/08 10:38:26;;;;;;;27.90;17.02;;;;;;;;;;5075179;28;20094;-82
2023/03/08 10:40:59;;;;;;;28.67;17.35;;;;;;;;;;5078041;28;20040;-80
2023/03/08 10:43:27;;;;;;;28.63;18.02;;;;;;;;;;5073925;28;20036;-80
2023/03/08 10:46:04;;;;;;;24.33;17.77;;;;;;;;;;5088331;28;20047;-80
2023/03/08 10:48:31;;;;;;;29.25;18.70;;;;;;;;;;5072941;28;20047;-79
2023/03/08 10:51:01;;;;;;;28.15;18.30;;;;;;;;;;5077290;28;20055;-79
2023/03/08 10:53:28;;;;;;;30.90;19.45;;;;;;;;;;5088727;28;20044;-80
2023/03/08 10:55:54;;;;;;;29.67;20.27;;;;;;;;;;5079158;28;20059;-80
2023/03/08 10:58:37;;;;;;;32.58;20.77;;;;;;;;;;5082527;28;20177;-80
2023/03/08 11:01:24;;;;;;;32.33;20.85;;;;;;;;;;5085537;28;20047;-80
2023/03/08 11:04:06;;;;;;;29.90;20.25;;;;;;;;;;5075435;28;20135;-81
2023/03/08 11:06:36;;;;;;;28.63;19.38;;;;;;;;;;5073314;28;20139;-81
2023/03/08 11:09:03;;;;;;;28.80;19.55;;;;;;;;;;5081220;28;20032;-81
2023/03/08 11:11:39;;;;;;;27.42;19.00;;;;;;;;;;5083189;28;20097;-81
2023/03/08 11:14:05;;;;;;;25.60;18.13;;;;;;;;;;5084397;28;20471;-81
2023/03/08 11:16:44;;;;;;;26.85;18.67;;;;;;;;;;5075335;28;20044;-81
2023/03/08 11:19:19;;;;;;;24.48;16.67;;;;;;;;;;5079680;28;20044;-81
2023/03/08 11:21:51;;;;;;;24.08;17.52;;;;;;;;;;5076358;28;20044;-80
2023/03/08 11:24:23;;;;;;;25.88;17.30;;;;;;;;;;5080432;28;20048;-81
2023/03/08 11:27:00;;;;;;;24.83;16.95;;;;;;;;;;5072803;28;20093;-81
2023/03/08 11:29:26;;;;;;;23.50;17.08;;;;;;;;;;5090684;28;20053;-81
2023/03/08 11:32:11;;;;;;;23.92;16.70;;;;;;;;;;5081361;28;22106;-81
2023/03/08 11:34:41;;;;;;;26.80;18.02;;;;;;;;;;5075271;28;20105;-80
2023/03/08 11:37:14;;;;;;;22.67;16.52;;;;;;;;;;5078296;28;20044;-81
2023/03/08 11:39:46;;;;;;;24.98;17.00;;;;;;;;;;5073779;28;20057;-82
2023/03/08 11:42:24;;;;;;;28.20;17.65;;;;;;;;;;5071585;28;20067;-81
2023/03/08 11:45:03;;;;;;;25.75;17.25;;;;;;;;;;5076616;28;20051;-82
2023/03/08 11:47:33;;;;;;;25.50;17.55;;;;;;;;;;5081157;28;20104;-82
2023/03/08 11:50:12;;;;;;;28.10;19.10;;;;;;;;;;5091119;28;20052;-82
2023/03/08 11:52:41;;;;;;;26.13;18.50;;;;;;;;;;5085743;28;20394;-81
2023/03/08 11:55:19;;;;;;;27.77;16.73;;;;;;;;;;5097544;28;20052;-81
2023/03/08 11:57:50;;;;;;;23.10;15.15;;;;;;;;;;5098275;28;20051;-81
2023/03/08 12:00:16;;;;;;;;;;;;;;;;;;5097399;28;20394;-81
2023/03/08 12:02:48;;;;;;;21.83;13.93;;;;;;;;;;5086364;28;20272;-81
2023/03/08 12:05:14;;;;;;;;;;;;;;;;;;5076547;28;20491;-81
2023/03/08 12:07:51;;;;;;;20.05;13.52;;;;;;;;;;5083150;28;19935;-81
2023/03/08 12:10:17;;;;;;;21.60;15.15;;;;;;;;;;5085295;28;20052;-80
2023/03/08 12:12:46;;;;;;;22.10;15.73;;;;;;;;;;5085047;28;20052;-81
2023/03/08 12:15:27;;;;;;;22.00;16.00;;;;;;;;;;5089481;28;20043;-81
2023/03/08 12:17:56;;;;;;;23.67;15.57;;;;;;;;;;5085079;28;20040;-81
2023/03/08 12:20:22;;;;;;;23.92;15.13;;;;;;;;;;5085627;28;20052;-81
2023/03/08 12:22:48;;;;;;;21.88;15.20;;;;;;;;;;5099132;28;20046;-81
2023/03/08 12:25:21;;;;;;;25.10;15.50;;;;;;;;;;5111132;28;20055;-81
2023/03/08 12:27:56;;;;;;;22.88;14.82;;;;;;;;;;5099872;28;20036;-77
2023/03/08 12:30:40;;;;;;;23.80;15.88;;;;;;;;;;5101812;28;20053;-80
2023/03/08 12:33:10;;;;;;;24.08;16.17;;;;;;;;;;5096667;28;20040;-80
2023/03/08 12:35:37;;;;;;;23.50;14.88;;;;;;;;;;5097825;28;20059;-80
2023/03/08 12:38:06;;;;;;;29.63;16.05;;;;;;;;;;5091453;28;20080;-80
2023/03/08 12:40:37;;;;;;;26.95;16.80;;;;;;;;;;5091092;28;20053;-81
2023/03/08 12:43:04;;;;;;;28.48;18.23;;;;;;;;;;5091786;28;20070;-80
2023/03/08 12:45:31;;;;;;;29.55;17.88;;;;;;;;;;5109278;28;20060;-80
2023/03/08 12:48:17;;;;;;;30.58;18.52;;;;;;;;;;5091589;28;20072;-80
2023/03/08 12:50:54;;;;;;;32.65;17.83;;;;;;;;;;5092581;28;20044;-80
2023/03/08 12:53:32;;;;;;;36.22;20.15;;;;;;;;;;5089089;28;20059;-80
2023/03/08 12:55:59;;;;;;;37.90;20.75;;;;;;;;;;5088100;28;20065;-80
2023/03/08 12:58:25;;;;;;;35.88;20.40;;;;;;;;;;5089295;28;20422;-80
2023/03/08 13:00:58;;;;;;;39.47;21.13;;;;;;;;;;5093336;28;20144;-80
2023/03/08 13:03:29;;;;;;;38.13;19.50;;;;;;;;;;5088106;28;20083;-80
2023/03/08 13:05:55;;;;;;;39.78;20.17;;;;;;;;;;5086372;28;20064;-80
2023/03/08 13:08:27;;;;;;;38.22;20.33;;;;;;;;;;5091559;28;20035;-79
2023/03/08 13:11:15;;;;;;;34.90;20.70;;;;;;;;;;5090592;28;20047;-80
2023/03/08 13:13:47;;;;;;;26.60;16.02;;;;;;;;;;5089641;28;20521;-80
2023/03/08 13:16:21;;;;;;;29.35;16.38;;;;;;;;;;5105029;28;20571;-79
2023/03/08 13:18:49;;;;;;;28.92;15.93;;;;;;;;;;5094710;28;20518;-80
2023/03/08 13:21:33;;;;;;;18.05;10.38;;;;;;;;;;5105031;28;20051;-79
2023/03/08 13:24:05;;;;;;;20.45;12.07;;;;;;;;;;5089835;28;20108;-79
2023/03/08 13:26:31;;;;;;;19.55;11.48;;;;;;;;;;5106762;28;20121;-80
2023/03/08 13:28:57;;;;;;;18.85;9.63;;;;;;;;;;5108185;28;20040;-80
2023/03/08 13:31:28;;;;;;;19.35;9.93;;;;;;;;;;5106412;28;20090;-80
2023/03/08 13:33:55;;;;;;;15.63;8.98;;;;;;;;;;5107515;28;20051;-80
2023/03/08 13:36:21;;;;;;;17.95;9.82;;;;;;;;;;5105878;28;20081;-80
2023/03/08 13:39:07;;;;;;;19.08;10.43;;;;;;;;;;5089263;28;20060;-80
2023/03/08 13:41:41;;;;;;;14.07;8.00;;;;;;;;;;5093157;28;20440;-80
2023/03/08 13:44:17;;;;;;;14.90;7.93;;;;;;;;;;5108149;28;20043;-80
2023/03/08 13:46:44;;;;;;;13.18;7.68;;;;;;;;;;5107397;28;20047;-80
2023/03/08 13:49:15;;;;;;;14.43;7.70;;;;;;;;;;5101305;28;20068;-80
2023/03/08 13:51:42;;;;;;;15.00;8.25;;;;;;;;;;5087762;28;20047;-80
2023/03/08 13:54:14;;;;;;;13.93;7.63;;;;;;;;;;5087670;28;20041;-80
2023/03/08 13:56:40;;;;;;;13.90;7.95;;;;;;;;;;5093167;28;20050;-80
2023/03/08 13:59:07;;;;;;;12.93;7.45;;;;;;;;;;5105440;28;20107;-80
2023/03/08 14:01:33;;;;;;;16.50;9.05;;;;;;;;;;5104117;28;20118;-80
2023/03/08 14:04:09;;;;;;;13.88;7.95;;;;;;;;;;5097750;28;20052;-80
2023/03/08 14:06:37;;;;;;;17.83;9.32;;;;;;;;;;5091030;28;20048;-80
2023/03/08 14:09:04;;;;;;;20.08;10.75;;;;;;;;;;5093395;28;20131;-80
2023/03/08 14:11:35;;;;;;;13.18;8.15;;;;;;;;;;5096262;28;20037;-80
2023/03/08 14:14:03;;;;;;;13.63;7.20;;;;;;;;;;5096855;28;20074;-80
2023/03/08 14:16:29;;;;;;;13.02;7.82;;;;;;;;;;5096564;28;20048;-80
2023/03/08 14:18:56;;;;;;;13.05;7.97;;;;;;;;;;5095569;28;20056;-80
2023/03/08 14:21:24;;;;;;;12.25;7.25;;;;;;;;;;5095969;28;20036;-80
2023/03/08 14:23:57;;;;;;;12.90;7.45;;;;;;;;;;5099755;28;20054;-80
2023/03/08 14:26:34;;;;;;;13.50;7.28;;;;;;;;;;5091768;28;20403;-80
2023/03/08 14:29:10;;;;;;;11.75;6.68;;;;;;;;;;5099696;28;20752;-80